sensor_id;sensor_type;location;lat;lon;timestamp;temperature;humidity
80495;DHT22;69819;48.798;11.770;2023-05-07T00:00:38;15.30;56.30
80495;DHT22;69819;48.798;11.770;2023-05-07T00:03:03;15.30;56.30
80495;DHT22;69819;48.798;11.770;2023-05-07T00:05:29;15.20;56.20
80495;DHT22;69819;48.798;11.770;2023-05-07T00:07:55;15.20;56.40
80495;DHT22;69819;48.798;11.770;2023-05-07T00:10:21;15.10;56.40
80495;DHT22;69819;48.798;11.770;2023-05-07T00:12:47;15.10;56.50
80495;DHT22;69819;48.798;11.770;2023-05-07T00:15:13;15.10;56.60
80495;DHT22;69819;48.798;11.770;2023-05-07T00:17:38;15.10;56.60
80495;DHT22;69819;48.798;11.770;2023-05-07T00:20:05;15.10;56.60
80495;DHT22;69819;48.798;11.770;2023-05-07T00:22:31;15.10;56.80
80495;DHT22;69819;48.798;11.770;2023-05-07T00:24:58;15.00;56.80
80495;DHT22;69819;48.798;11.770;2023-05-07T00:27:25;15.00;56.90
80495;DHT22;69819;48.798;11.770;2023-05-07T00:29:51;15.10;57.00
80495;DHT22;69819;48.798;11.770;2023-05-07T00:32:16;15.00;56.90
80495;DHT22;69819;48.798;11.770;2023-05-07T00:34:43;15.00;56.90
80495;DHT22;69819;48.798;11.770;2023-05-07T00:37:09;14.90;56.80
80495;DHT22;69819;48.798;11.770;2023-05-07T00:39:35;14.90;56.80
80495;DHT22;69819;48.798;11.770;2023-05-07T00:42:01;14.90;56.90
80495;DHT22;69819;48.798;11.770;2023-05-07T00:44:28;14.90;56.90
80495;DHT22;69819;48.798;11.770;2023-05-07T00:46:56;14.90;57.00
80495;DHT22;69819;48.798;11.770;2023-05-07T00:49:26;14.80;57.00
80495;DHT22;69819;48.798;11.770;2023-05-07T00:52:12;14.80;57.20
80495;DHT22;69819;48.798;11.770;2023-05-07T00:54:41;14.80;57.20
80495;DHT22;69819;48.798;11.770;2023-05-07T00:57:09;14.70;57.20
80495;DHT22;69819;48.798;11.770;2023-05-07T00:59:37;14.70;57.30
80495;DHT22;69819;48.798;11.770;2023-05-07T01:02:03;14.70;57.30
80495;DHT22;69819;48.798;11.770;2023-05-07T01:04:29;14.70;57.30
80495;DHT22;69819;48.798;11.770;2023-05-07T01:06:56;14.70;57.30
80495;DHT22;69819;48.798;11.770;2023-05-07T01:09:26;14.70;57.60
80495;DHT22;69819;48.798;11.770;2023-05-07T01:11:53;14.70;57.50
80495;DHT22;69819;48.798;11.770;2023-05-07T01:14:20;14.60;57.40
80495;DHT22;69819;48.798;11.770;2023-05-07T01:16:47;14.70;57.50
80495;DHT22;69819;48.798;11.770;2023-05-07T01:19:18;14.60;57.40
80495;DHT22;69819;48.798;11.770;2023-05-07T01:21:48;14.60;57.50
80495;DHT22;69819;48.798;11.770;2023-05-07T01:24:14;14.60;57.50
80495;DHT22;69819;48.798;11.770;2023-05-07T01:26:42;14.60;57.30
80495;DHT22;69819;48.798;11.770;2023-05-07T01:29:09;14.60;57.40
80495;DHT22;69819;48.798;11.770;2023-05-07T01:31:36;14.60;57.40
80495;DHT22;69819;48.798;11.770;2023-05-07T01:34:03;14.50;57.30
80495;DHT22;69819;48.798;11.770;2023-05-07T01:36:32;14.50;57.50
80495;DHT22;69819;48.798;11.770;2023-05-07T01:38:59;14.50;57.50
80495;DHT22;69819;48.798;11.770;2023-05-07T01:41:25;14.50;57.40
80495;DHT22;69819;48.798;11.770;2023-05-07T01:43:52;14.50;57.40
80495;DHT22;69819;48.798;11.770;2023-05-07T01:46:19;14.50;57.50
80495;DHT22;69819;48.798;11.770;2023-05-07T01:48:45;14.50;57.60
80495;DHT22;69819;48.798;11.770;2023-05-07T01:51:12;14.40;57.30
80495;DHT22;69819;48.798;11.770;2023-05-07T01:53:39;14.40;57.40
80495;DHT22;69819;48.798;11.770;2023-05-07T01:56:06;14.40;57.60
80495;DHT22;69819;48.798;11.770;2023-05-07T01:58:32;14.40;57.60
80495;DHT22;69819;48.798;11.770;2023-05-07T02:00:58;14.30;57.60
80495;DHT22;69819;48.798;11.770;2023-05-07T02:03:24;14.30;57.60
80495;DHT22;69819;48.798;11.770;2023-05-07T02:05:53;14.30;57.60
80495;DHT22;69819;48.798;11.770;2023-05-07T02:08:19;14.30;57.60
80495;DHT22;69819;48.798;11.770;2023-05-07T02:10:45;14.20;57.50
80495;DHT22;69819;48.798;11.770;2023-05-07T02:13:10;14.20;57.50
80495;DHT22;69819;48.798;11.770;2023-05-07T02:15:36;14.20;57.70
80495;DHT22;69819;48.798;11.770;2023-05-07T02:18:08;14.20;57.70
80495;DHT22;69819;48.798;11.770;2023-05-07T02:20:34;14.20;58.10
80495;DHT22;69819;48.798;11.770;2023-05-07T02:23:00;14.20;57.80
80495;DHT22;69819;48.798;11.770;2023-05-07T02:25:26;14.20;57.80
80495;DHT22;69819;48.798;11.770;2023-05-07T02:27:52;14.20;57.90
80495;DHT22;69819;48.798;11.770;2023-05-07T02:30:18;14.20;57.90
80495;DHT22;69819;48.798;11.770;2023-05-07T02:32:44;14.20;57.90
80495;DHT22;69819;48.798;11.770;2023-05-07T02:35:10;14.20;57.90
80495;DHT22;69819;48.798;11.770;2023-05-07T02:37:36;14.10;57.80
80495;DHT22;69819;48.798;11.770;2023-05-07T02:40:02;14.10;57.90
80495;DHT22;69819;48.798;11.770;2023-05-07T02:42:29;14.10;58.00
80495;DHT22;69819;48.798;11.770;2023-05-07T02:44:55;14.10;58.00
80495;DHT22;69819;48.798;11.770;2023-05-07T02:47:21;14.10;58.00
80495;DHT22;69819;48.798;11.770;2023-05-07T02:49:47;14.10;58.00
80495;DHT22;69819;48.798;11.770;2023-05-07T02:52:13;14.10;58.10
80495;DHT22;69819;48.798;11.770;2023-05-07T02:54:39;14.10;58.00
80495;DHT22;69819;48.798;11.770;2023-05-07T02:57:05;14.10;58.00
80495;DHT22;69819;48.798;11.770;2023-05-07T02:59:30;14.00;58.00
80495;DHT22;69819;48.798;11.770;2023-05-07T03:01:56;14.00;58.10
80495;DHT22;69819;48.798;11.770;2023-05-07T03:04:22;14.00;58.10
80495;DHT22;69819;48.798;11.770;2023-05-07T03:06:48;14.00;58.10
80495;DHT22;69819;48.798;11.770;2023-05-07T03:09:13;14.00;58.10
80495;DHT22;69819;48.798;11.770;2023-05-07T03:11:39;14.00;58.10
80495;DHT22;69819;48.798;11.770;2023-05-07T03:14:05;14.00;58.20
80495;DHT22;69819;48.798;11.770;2023-05-07T03:16:31;14.00;58.20
80495;DHT22;69819;48.798;11.770;2023-05-07T03:18:56;14.00;58.20
80495;DHT22;69819;48.798;11.770;2023-05-07T03:21:22;14.00;58.20
80495;DHT22;69819;48.798;11.770;2023-05-07T03:23:48;14.00;58.20
80495;DHT22;69819;48.798;11.770;2023-05-07T03:26:13;14.00;58.20
80495;DHT22;69819;48.798;11.770;2023-05-07T03:28:39;14.00;58.20
80495;DHT22;69819;48.798;11.770;2023-05-07T03:31:05;14.00;58.20
80495;DHT22;69819;48.798;11.770;2023-05-07T03:33:34;14.00;58.20
80495;DHT22;69819;48.798;11.770;2023-05-07T03:36:00;14.00;58.40
80495;DHT22;69819;48.798;11.770;2023-05-07T03:38:26;14.00;58.20
80495;DHT22;69819;48.798;11.770;2023-05-07T03:40:53;14.00;58.20
80495;DHT22;69819;48.798;11.770;2023-05-07T03:43:18;14.00;58.20
80495;DHT22;69819;48.798;11.770;2023-05-07T03:45:44;13.90;58.30
80495;DHT22;69819;48.798;11.770;2023-05-07T03:48:10;13.90;58.20
80495;DHT22;69819;48.798;11.770;2023-05-07T03:50:37;13.90;58.20
80495;DHT22;69819;48.798;11.770;2023-05-07T03:53:03;13.90;58.40
80495;DHT22;69819;48.798;11.770;2023-05-07T03:55:29;13.90;58.60
80495;DHT22;69819;48.798;11.770;2023-05-07T03:57:54;14.00;59.30
80495;DHT22;69819;48.798;11.770;2023-05-07T04:00:22;14.00;59.00
80495;DHT22;69819;48.798;11.770;2023-05-07T04:02:47;14.10;59.10
80495;DHT22;69819;48.798;11.770;2023-05-07T04:05:14;14.20;59.00
80495;DHT22;69819;48.798;11.770;2023-05-07T04:07:40;14.40;58.80
80495;DHT22;69819;48.798;11.770;2023-05-07T04:10:06;14.40;58.50
80495;DHT22;69819;48.798;11.770;2023-05-07T04:12:32;14.50;58.20
80495;DHT22;69819;48.798;11.770;2023-05-07T04:14:58;14.60;57.90
80495;DHT22;69819;48.798;11.770;2023-05-07T04:17:24;14.60;57.80
80495;DHT22;69819;48.798;11.770;2023-05-07T04:19:50;14.70;57.90
80495;DHT22;69819;48.798;11.770;2023-05-07T04:22:16;14.70;58.10
80495;DHT22;69819;48.798;11.770;2023-05-07T04:24:42;14.70;57.80
80495;DHT22;69819;48.798;11.770;2023-05-07T04:27:07;14.70;57.60
80495;DHT22;69819;48.798;11.770;2023-05-07T04:29:33;14.80;57.60
80495;DHT22;69819;48.798;11.770;2023-05-07T04:31:59;14.90;57.80
80495;DHT22;69819;48.798;11.770;2023-05-07T04:34:25;14.90;57.80
80495;DHT22;69819;48.798;11.770;2023-05-07T04:36:50;15.00;57.80
80495;DHT22;69819;48.798;11.770;2023-05-07T04:39:16;15.10;57.80
80495;DHT22;69819;48.798;11.770;2023-05-07T04:41:42;15.10;57.70
80495;DHT22;69819;48.798;11.770;2023-05-07T04:44:07;15.20;57.70
80495;DHT22;69819;48.798;11.770;2023-05-07T04:46:34;15.20;57.60
80495;DHT22;69819;48.798;11.770;2023-05-07T04:49:00;15.30;57.60
80495;DHT22;69819;48.798;11.770;2023-05-07T04:51:26;15.40;57.50
80495;DHT22;69819;48.798;11.770;2023-05-07T04:53:51;15.50;57.50
80495;DHT22;69819;48.798;11.770;2023-05-07T04:56:17;15.60;57.40
80495;DHT22;69819;48.798;11.770;2023-05-07T04:58:43;15.60;57.30
80495;DHT22;69819;48.798;11.770;2023-05-07T05:01:09;15.70;57.30
80495;DHT22;69819;48.798;11.770;2023-05-07T05:03:34;15.80;57.20
80495;DHT22;69819;48.798;11.770;2023-05-07T05:06:00;15.90;57.20
80495;DHT22;69819;48.798;11.770;2023-05-07T05:08:26;16.10;57.30
80495;DHT22;69819;48.798;11.770;2023-05-07T05:10:52;16.20;57.10
80495;DHT22;69819;48.798;11.770;2023-05-07T05:13:17;16.40;57.10
80495;DHT22;69819;48.798;11.770;2023-05-07T05:15:43;16.60;56.90
80495;DHT22;69819;48.798;11.770;2023-05-07T05:18:09;16.70;56.80
80495;DHT22;69819;48.798;11.770;2023-05-07T05:20:35;16.90;56.80
80495;DHT22;69819;48.798;11.770;2023-05-07T05:23:00;17.10;56.70
80495;DHT22;69819;48.798;11.770;2023-05-07T05:25:26;17.20;56.30
80495;DHT22;69819;48.798;11.770;2023-05-07T05:27:53;17.40;56.30
80495;DHT22;69819;48.798;11.770;2023-05-07T05:30:20;17.70;56.30
80495;DHT22;69819;48.798;11.770;2023-05-07T05:32:45;17.90;56.10
80495;DHT22;69819;48.798;11.770;2023-05-07T05:35:11;18.10;55.70
80495;DHT22;69819;48.798;11.770;2023-05-07T05:37:37;18.40;55.40
80495;DHT22;69819;48.798;11.770;2023-05-07T05:40:03;18.60;55.10
80495;DHT22;69819;48.798;11.770;2023-05-07T05:42:31;18.80;55.00
80495;DHT22;69819;48.798;11.770;2023-05-07T05:45:00;19.00;54.60
80495;DHT22;69819;48.798;11.770;2023-05-07T05:47:26;19.20;55.10
80495;DHT22;69819;48.798;11.770;2023-05-07T05:49:52;19.40;54.60
80495;DHT22;69819;48.798;11.770;2023-05-07T05:52:17;19.80;55.10
80495;DHT22;69819;48.798;11.770;2023-05-07T05:54:43;20.40;55.90
80495;DHT22;69819;48.798;11.770;2023-05-07T05:57:09;21.20;56.10
80495;DHT22;69819;48.798;11.770;2023-05-07T05:59:35;22.10;55.50
80495;DHT22;69819;48.798;11.770;2023-05-07T06:02:01;23.20;54.60
80495;DHT22;69819;48.798;11.770;2023-05-07T06:04:26;24.20;53.50
80495;DHT22;69819;48.798;11.770;2023-05-07T06:06:52;25.10;52.10
80495;DHT22;69819;48.798;11.770;2023-05-07T06:09:22;26.00;50.50
80495;DHT22;69819;48.798;11.770;2023-05-07T06:11:47;26.80;49.00
80495;DHT22;69819;48.798;11.770;2023-05-07T06:14:13;27.50;47.80
80495;DHT22;69819;48.798;11.770;2023-05-07T06:16:39;28.00;46.60
80495;DHT22;69819;48.798;11.770;2023-05-07T06:19:05;28.60;45.40
80495;DHT22;69819;48.798;11.770;2023-05-07T06:21:30;29.00;44.60
80495;DHT22;69819;48.798;11.770;2023-05-07T06:23:56;29.40;43.40
80495;DHT22;69819;48.798;11.770;2023-05-07T06:26:22;29.80;42.60
80495;DHT22;69819;48.798;11.770;2023-05-07T06:28:48;30.20;42.00
80495;DHT22;69819;48.798;11.770;2023-05-07T06:31:18;30.40;41.50
80495;DHT22;69819;48.798;11.770;2023-05-07T06:33:48;30.70;40.90
80495;DHT22;69819;48.798;11.770;2023-05-07T06:36:15;31.10;41.10
80495;DHT22;69819;48.798;11.770;2023-05-07T06:38:41;31.50;40.40
80495;DHT22;69819;48.798;11.770;2023-05-07T06:41:07;31.90;39.70
80495;DHT22;69819;48.798;11.770;2023-05-07T06:43:33;32.30;38.90
80495;DHT22;69819;48.798;11.770;2023-05-07T06:45:59;32.60;38.50
80495;DHT22;69819;48.798;11.770;2023-05-07T06:48:24;33.00;38.60
80495;DHT22;69819;48.798;11.770;2023-05-07T06:50:50;33.20;37.80
80495;DHT22;69819;48.798;11.770;2023-05-07T06:53:16;33.60;37.30
80495;DHT22;69819;48.798;11.770;2023-05-07T06:55:42;33.90;36.70
80495;DHT22;69819;48.798;11.770;2023-05-07T06:58:08;34.10;35.80
80495;DHT22;69819;48.798;11.770;2023-05-07T07:00:33;34.30;35.20
80495;DHT22;69819;48.798;11.770;2023-05-07T07:03:00;34.40;34.70
80495;DHT22;69819;48.798;11.770;2023-05-07T07:05:26;34.50;34.50
80495;DHT22;69819;48.798;11.770;2023-05-07T07:07:51;34.60;34.40
80495;DHT22;69819;48.798;11.770;2023-05-07T07:10:20;34.70;34.20
80495;DHT22;69819;48.798;11.770;2023-05-07T07:12:46;34.90;33.80
80495;DHT22;69819;48.798;11.770;2023-05-07T07:15:13;34.80;32.80
80495;DHT22;69819;48.798;11.770;2023-05-07T07:17:39;34.60;32.00
80495;DHT22;69819;48.798;11.770;2023-05-07T07:20:05;34.20;31.80
80495;DHT22;69819;48.798;11.770;2023-05-07T07:22:31;33.80;32.10
80495;DHT22;69819;48.798;11.770;2023-05-07T07:24:57;33.30;32.60
80495;DHT22;69819;48.798;11.770;2023-05-07T07:27:23;32.90;33.30
80495;DHT22;69819;48.798;11.770;2023-05-07T07:29:49;32.80;34.20
80495;DHT22;69819;48.798;11.770;2023-05-07T07:32:15;32.80;34.70
80495;DHT22;69819;48.798;11.770;2023-05-07T07:34:41;33.10;34.80
80495;DHT22;69819;48.798;11.770;2023-05-07T07:37:07;33.50;34.50
80495;DHT22;69819;48.798;11.770;2023-05-07T07:39:33;33.90;34.30
80495;DHT22;69819;48.798;11.770;2023-05-07T07:41:58;34.30;33.90
80495;DHT22;69819;48.798;11.770;2023-05-07T07:44:25;34.70;33.30
80495;DHT22;69819;48.798;11.770;2023-05-07T07:46:53;34.90;32.50
80495;DHT22;69819;48.798;11.770;2023-05-07T07:49:19;35.00;32.20
80495;DHT22;69819;48.798;11.770;2023-05-07T07:51:45;35.10;32.00
80495;DHT22;69819;48.798;11.770;2023-05-07T07:54:11;35.20;32.10
80495;DHT22;69819;48.798;11.770;2023-05-07T07:56:38;35.30;31.90
80495;DHT22;69819;48.798;11.770;2023-05-07T07:59:04;35.40;31.70
80495;DHT22;69819;48.798;11.770;2023-05-07T08:01:30;35.50;31.60
80495;DHT22;69819;48.798;11.770;2023-05-07T08:03:56;35.70;31.60
80495;DHT22;69819;48.798;11.770;2023-05-07T08:06:24;35.90;31.20
80495;DHT22;69819;48.798;11.770;2023-05-07T08:08:53;36.10;30.90
80495;DHT22;69819;48.798;11.770;2023-05-07T08:11:20;36.40;30.50
80495;DHT22;69819;48.798;11.770;2023-05-07T08:13:46;36.50;30.30
80495;DHT22;69819;48.798;11.770;2023-05-07T08:16:13;36.70;30.30
80495;DHT22;69819;48.798;11.770;2023-05-07T08:18:39;36.90;30.00
80495;DHT22;69819;48.798;11.770;2023-05-07T08:21:05;37.10;29.80
80495;DHT22;69819;48.798;11.770;2023-05-07T08:23:31;37.30;29.50
80495;DHT22;69819;48.798;11.770;2023-05-07T08:25:57;37.60;29.60
80495;DHT22;69819;48.798;11.770;2023-05-07T08:28:23;37.70;29.20
80495;DHT22;69819;48.798;11.770;2023-05-07T08:30:50;37.90;28.90
80495;DHT22;69819;48.798;11.770;2023-05-07T08:33:16;38.00;28.90
80495;DHT22;69819;48.798;11.770;2023-05-07T08:35:41;38.10;28.60
80495;DHT22;69819;48.798;11.770;2023-05-07T08:38:07;38.10;28.70
80495;DHT22;69819;48.798;11.770;2023-05-07T08:40:39;38.20;28.70
80495;DHT22;69819;48.798;11.770;2023-05-07T08:43:07;38.30;27.80
80495;DHT22;69819;48.798;11.770;2023-05-07T08:45:34;38.40;28.40
80495;DHT22;69819;48.798;11.770;2023-05-07T08:48:02;38.50;28.20
80495;DHT22;69819;48.798;11.770;2023-05-07T08:50:35;38.60;28.00
80495;DHT22;69819;48.798;11.770;2023-05-07T08:53:03;38.70;28.00
80495;DHT22;69819;48.798;11.770;2023-05-07T08:55:31;38.80;28.10
80495;DHT22;69819;48.798;11.770;2023-05-07T08:57:58;38.90;27.90
80495;DHT22;69819;48.798;11.770;2023-05-07T09:00:25;38.90;27.70
80495;DHT22;69819;48.798;11.770;2023-05-07T09:02:52;38.80;27.50
80495;DHT22;69819;48.798;11.770;2023-05-07T09:05:19;38.60;27.30
80495;DHT22;69819;48.798;11.770;2023-05-07T09:07:45;38.50;27.40
80495;DHT22;69819;48.798;11.770;2023-05-07T09:10:12;38.40;28.30
80495;DHT22;69819;48.798;11.770;2023-05-07T09:12:39;38.40;27.80
80495;DHT22;69819;48.798;11.770;2023-05-07T09:15:05;38.40;27.80
80495;DHT22;69819;48.798;11.770;2023-05-07T09:17:34;38.40;27.80
80495;DHT22;69819;48.798;11.770;2023-05-07T09:20:06;38.50;27.80
80495;DHT22;69819;48.798;11.770;2023-05-07T09:22:33;38.50;27.40
80495;DHT22;69819;48.798;11.770;2023-05-07T09:25:01;38.50;27.60
80495;DHT22;69819;48.798;11.770;2023-05-07T09:27:27;38.50;27.60
80495;DHT22;69819;48.798;11.770;2023-05-07T09:29:53;38.40;27.60
80495;DHT22;69819;48.798;11.770;2023-05-07T09:32:18;38.40;27.60
80495;DHT22;69819;48.798;11.770;2023-05-07T09:34:44;38.30;27.60
80495;DHT22;69819;48.798;11.770;2023-05-07T09:37:12;38.30;27.60
80495;DHT22;69819;48.798;11.770;2023-05-07T09:42:06;38.30;27.60
80495;DHT22;69819;48.798;11.770;2023-05-07T09:44:33;38.30;27.60
80495;DHT22;69819;48.798;11.770;2023-05-07T09:47:00;38.20;27.20
80495;DHT22;69819;48.798;11.770;2023-05-07T09:49:30;38.10;27.20
80495;DHT22;69819;48.798;11.770;2023-05-07T09:52:01;37.80;27.20
80495;DHT22;69819;48.798;11.770;2023-05-07T09:54:28;37.70;27.00
80495;DHT22;69819;48.798;11.770;2023-05-07T09:56:55;37.50;27.20
80495;DHT22;69819;48.798;11.770;2023-05-07T09:59:21;37.30;27.40
80495;DHT22;69819;48.798;11.770;2023-05-07T10:01:49;37.10;27.40
80495;DHT22;69819;48.798;11.770;2023-05-07T10:04:17;36.90;27.50
80495;DHT22;69819;48.798;11.770;2023-05-07T10:06:45;36.60;27.30
80495;DHT22;69819;48.798;11.770;2023-05-07T10:09:12;36.40;27.20
80495;DHT22;69819;48.798;11.770;2023-05-07T10:11:41;36.00;27.70
80495;DHT22;69819;48.798;11.770;2023-05-07T10:14:07;35.70;27.90
80495;DHT22;69819;48.798;11.770;2023-05-07T10:16:35;35.40;28.40
80495;DHT22;69819;48.798;11.770;2023-05-07T10:19:06;35.10;28.00
80495;DHT22;69819;48.798;11.770;2023-05-07T10:21:40;34.80;28.10
80495;DHT22;69819;48.798;11.770;2023-05-07T10:24:26;34.50;28.30
80495;DHT22;69819;48.798;11.770;2023-05-07T10:26:55;34.20;28.40
80495;DHT22;69819;48.798;11.770;2023-05-07T10:29:53;34.00;28.80
80495;DHT22;69819;48.798;11.770;2023-05-07T10:35:18;33.40;28.50
80495;DHT22;69819;48.798;11.770;2023-05-07T10:37:47;33.00;28.40
80495;DHT22;69819;48.798;11.770;2023-05-07T10:40:14;32.70;29.20
80495;DHT22;69819;48.798;11.770;2023-05-07T10:42:53;32.40;29.70
80495;DHT22;69819;48.798;11.770;2023-05-07T10:45:21;32.00;30.10
80495;DHT22;69819;48.798;11.770;2023-05-07T10:48:15;31.70;30.20
80495;DHT22;69819;48.798;11.770;2023-05-07T10:50:45;31.30;30.60
80495;DHT22;69819;48.798;11.770;2023-05-07T10:55:51;30.60;30.90
80495;DHT22;69819;48.798;11.770;2023-05-07T10:58:37;30.30;31.00
80495;DHT22;69819;48.798;11.770;2023-05-07T11:01:03;30.00;31.20
80495;DHT22;69819;48.798;11.770;2023-05-07T11:03:29;29.70;31.80
80495;DHT22;69819;48.798;11.770;2023-05-07T11:08:56;29.20;32.40
80495;DHT22;69819;48.798;11.770;2023-05-07T11:11:49;29.00;33.20
80495;DHT22;69819;48.798;11.770;2023-05-07T11:17:09;28.70;34.20
80495;DHT22;69819;48.798;11.770;2023-05-07T11:19:55;28.70;33.60
80495;DHT22;69819;48.798;11.770;2023-05-07T11:22:48;28.60;34.00
80495;DHT22;69819;48.798;11.770;2023-05-07T11:25:21;28.70;34.00
80495;DHT22;69819;48.798;11.770;2023-05-07T11:27:48;28.70;33.90
80495;DHT22;69819;48.798;11.770;2023-05-07T11:30:17;28.70;33.60
80495;DHT22;69819;48.798;11.770;2023-05-07T11:32:47;28.60;33.50
80495;DHT22;69819;48.798;11.770;2023-05-07T11:35:15;28.50;33.70
80495;DHT22;69819;48.798;11.770;2023-05-07T11:37:42;28.50;34.00
80495;DHT22;69819;48.798;11.770;2023-05-07T11:40:11;28.40;33.90
80495;DHT22;69819;48.798;11.770;2023-05-07T11:42:40;28.40;34.00
80495;DHT22;69819;48.798;11.770;2023-05-07T11:45:08;28.30;34.50
80495;DHT22;69819;48.798;11.770;2023-05-07T11:47:35;28.30;33.90
80495;DHT22;69819;48.798;11.770;2023-05-07T11:50:05;28.30;34.80
80495;DHT22;69819;48.798;11.770;2023-05-07T11:52:33;28.30;34.50
80495;DHT22;69819;48.798;11.770;2023-05-07T11:55:00;28.40;34.40
80495;DHT22;69819;48.798;11.770;2023-05-07T11:57:27;28.40;34.20
80495;DHT22;69819;48.798;11.770;2023-05-07T11:59:58;28.50;34.60
80495;DHT22;69819;48.798;11.770;2023-05-07T12:02:25;28.40;34.40
80495;DHT22;69819;48.798;11.770;2023-05-07T12:04:52;28.50;34.20
80495;DHT22;69819;48.798;11.770;2023-05-07T12:07:18;28.50;34.00
80495;DHT22;69819;48.798;11.770;2023-05-07T12:09:45;28.50;34.00
80495;DHT22;69819;48.798;11.770;2023-05-07T12:12:11;28.50;34.30
80495;DHT22;69819;48.798;11.770;2023-05-07T12:14:42;28.50;34.50
80495;DHT22;69819;48.798;11.770;2023-05-07T12:17:11;28.50;34.30
80495;DHT22;69819;48.798;11.770;2023-05-07T12:19:39;28.50;34.20
80495;DHT22;69819;48.798;11.770;2023-05-07T12:22:10;28.50;34.00
80495;DHT22;69819;48.798;11.770;2023-05-07T12:24:45;28.60;33.90
80495;DHT22;69819;48.798;11.770;2023-05-07T12:27:21;28.60;33.90
80495;DHT22;69819;48.798;11.770;2023-05-07T12:29:48;28.60;33.80
80495;DHT22;69819;48.798;11.770;2023-05-07T12:32:20;28.50;34.00
80495;DHT22;69819;48.798;11.770;2023-05-07T12:34:49;28.50;34.10
80495;DHT22;69819;48.798;11.770;2023-05-07T12:37:16;28.40;33.90
80495;DHT22;69819;48.798;11.770;2023-05-07T12:39:49;28.40;34.10
80495;DHT22;69819;48.798;11.770;2023-05-07T12:42:35;28.30;34.10
80495;DHT22;69819;48.798;11.770;2023-05-07T12:45:13;28.30;34.30
80495;DHT22;69819;48.798;11.770;2023-05-07T12:47:44;28.30;34.10
80495;DHT22;69819;48.798;11.770;2023-05-07T12:50:11;28.30;34.30
80495;DHT22;69819;48.798;11.770;2023-05-07T12:52:37;28.20;34.10
80495;DHT22;69819;48.798;11.770;2023-05-07T12:55:07;28.20;34.00
80495;DHT22;69819;48.798;11.770;2023-05-07T12:57:50;28.20;34.10
80495;DHT22;69819;48.798;11.770;2023-05-07T13:00:32;28.10;34.20
80495;DHT22;69819;48.798;11.770;2023-05-07T13:03:02;28.10;34.00
80495;DHT22;69819;48.798;11.770;2023-05-07T13:05:28;28.00;33.80
80495;DHT22;69819;48.798;11.770;2023-05-07T13:07:55;28.00;33.80
80495;DHT22;69819;48.798;11.770;2023-05-07T13:10:25;28.00;33.60
80495;DHT22;69819;48.798;11.770;2023-05-07T13:12:51;27.90;33.60
80495;DHT22;69819;48.798;11.770;2023-05-07T13:15:18;27.90;33.70
80495;DHT22;69819;48.798;11.770;2023-05-07T13:17:44;27.90;34.00
80495;DHT22;69819;48.798;11.770;2023-05-07T13:20:10;27.90;34.00
80495;DHT22;69819;48.798;11.770;2023-05-07T13:22:38;27.90;34.00
80495;DHT22;69819;48.798;11.770;2023-05-07T13:25:05;27.90;34.20
80495;DHT22;69819;48.798;11.770;2023-05-07T13:27:31;27.90;34.60
80495;DHT22;69819;48.798;11.770;2023-05-07T13:30:01;28.00;34.20
80495;DHT22;69819;48.798;11.770;2023-05-07T13:32:26;28.00;34.40
80495;DHT22;69819;48.798;11.770;2023-05-07T13:34:52;28.00;35.00
80495;DHT22;69819;48.798;11.770;2023-05-07T13:37:18;28.00;34.60
80495;DHT22;69819;48.798;11.770;2023-05-07T13:39:44;28.10;34.40
80495;DHT22;69819;48.798;11.770;2023-05-07T13:42:10;28.10;34.40
80495;DHT22;69819;48.798;11.770;2023-05-07T13:44:35;28.10;34.30
80495;DHT22;69819;48.798;11.770;2023-05-07T13:47:01;28.10;34.40
80495;DHT22;69819;48.798;11.770;2023-05-07T13:49:27;28.00;34.70
80495;DHT22;69819;48.798;11.770;2023-05-07T13:51:53;28.00;34.50
80495;DHT22;69819;48.798;11.770;2023-05-07T13:54:19;28.00;35.10
80495;DHT22;69819;48.798;11.770;2023-05-07T13:56:44;28.00;34.80
80495;DHT22;69819;48.798;11.770;2023-05-07T13:59:10;28.00;34.80
80495;DHT22;69819;48.798;11.770;2023-05-07T14:01:36;28.10;35.30
80495;DHT22;69819;48.798;11.770;2023-05-07T14:04:02;28.00;35.00
80495;DHT22;69819;48.798;11.770;2023-05-07T14:06:28;28.00;34.10
80495;DHT22;69819;48.798;11.770;2023-05-07T14:08:54;28.10;34.40
80495;DHT22;69819;48.798;11.770;2023-05-07T14:11:20;28.10;34.90
80495;DHT22;69819;48.798;11.770;2023-05-07T14:13:46;28.10;34.50
80495;DHT22;69819;48.798;11.770;2023-05-07T14:16:12;28.10;34.80
80495;DHT22;69819;48.798;11.770;2023-05-07T14:18:37;28.10;34.30
80495;DHT22;69819;48.798;11.770;2023-05-07T14:21:04;28.10;34.30
80495;DHT22;69819;48.798;11.770;2023-05-07T14:23:31;28.10;34.30
80495;DHT22;69819;48.798;11.770;2023-05-07T14:25:57;28.10;34.00
80495;DHT22;69819;48.798;11.770;2023-05-07T14:28:23;28.10;33.60
80495;DHT22;69819;48.798;11.770;2023-05-07T14:30:49;28.10;33.60
80495;DHT22;69819;48.798;11.770;2023-05-07T14:33:17;28.10;33.50
80495;DHT22;69819;48.798;11.770;2023-05-07T14:35:42;28.10;33.60
80495;DHT22;69819;48.798;11.770;2023-05-07T14:38:13;28.10;33.50
80495;DHT22;69819;48.798;11.770;2023-05-07T14:40:39;28.10;33.50
80495;DHT22;69819;48.798;11.770;2023-05-07T14:43:04;28.10;33.80
80495;DHT22;69819;48.798;11.770;2023-05-07T14:45:30;28.10;33.80
80495;DHT22;69819;48.798;11.770;2023-05-07T14:47:56;28.10;33.50
80495;DHT22;69819;48.798;11.770;2023-05-07T14:50:21;28.10;33.10
80495;DHT22;69819;48.798;11.770;2023-05-07T14:52:47;28.10;33.10
80495;DHT22;69819;48.798;11.770;2023-05-07T14:55:13;28.10;33.20
80495;DHT22;69819;48.798;11.770;2023-05-07T14:57:39;28.10;33.10
80495;DHT22;69819;48.798;11.770;2023-05-07T15:00:06;28.10;33.30
80495;DHT22;69819;48.798;11.770;2023-05-07T15:02:32;28.10;33.10
80495;DHT22;69819;48.798;11.770;2023-05-07T15:04:59;28.00;33.10
80495;DHT22;69819;48.798;11.770;2023-05-07T15:07:25;28.00;34.00
80495;DHT22;69819;48.798;11.770;2023-05-07T15:09:51;28.00;33.40
80495;DHT22;69819;48.798;11.770;2023-05-07T15:12:17;28.00;33.10
80495;DHT22;69819;48.798;11.770;2023-05-07T15:14:42;27.90;33.20
80495;DHT22;69819;48.798;11.770;2023-05-07T15:17:08;27.90;33.50
80495;DHT22;69819;48.798;11.770;2023-05-07T15:19:34;27.80;33.50
80495;DHT22;69819;48.798;11.770;2023-05-07T15:22:00;27.80;33.70
80495;DHT22;69819;48.798;11.770;2023-05-07T15:24:29;27.80;33.80
80495;DHT22;69819;48.798;11.770;2023-05-07T15:26:56;27.80;34.00
80495;DHT22;69819;48.798;11.770;2023-05-07T15:29:23;27.90;34.10